createdAt,value
2018-07-05T00:00:41.042Z,6.03
2018-07-05T00:03:20.609Z,6.27
2018-07-05T00:06:00.352Z,6.50
2018-07-05T00:08:40.120Z,6.17
2018-07-05T00:11:19.809Z,6.70
2018-07-05T00:13:59.410Z,6.83
2018-07-05T00:16:38.926Z,7.03
2018-07-05T00:19:18.819Z,7.57
2018-07-05T00:21:58.474Z,7.10
2018-07-05T00:24:38.151Z,7.10
2018-07-05T00:27:17.869Z,7.27
2018-07-05T00:29:57.621Z,7.03
2018-07-05T00:32:37.786Z,7.10
2018-07-05T00:35:17.570Z,6.93
2018-07-05T00:37:57.302Z,6.70
2018-07-05T00:40:36.953Z,8.40
2018-07-05T00:43:16.610Z,6.53
2018-07-05T00:45:56.410Z,6.80
2018-07-05T00:48:36.309Z,7.10
2018-07-05T00:51:15.848Z,6.80
2018-07-05T00:53:55.425Z,7.37
2018-07-05T00:56:35.304Z,7.27
2018-07-05T00:59:15.255Z,7.17
2018-07-05T01:01:54.978Z,7.90
2018-07-05T01:04:34.492Z,7.33
2018-07-05T01:07:14.075Z,6.80
2018-07-05T01:09:53.693Z,7.20
2018-07-05T01:12:33.417Z,7.40
2018-07-05T01:15:13.131Z,6.57
2018-07-05T01:17:52.763Z,6.83
2018-07-05T01:20:32.468Z,7.20
2018-07-05T01:23:12.110Z,6.87
2018-07-05T01:25:51.751Z,6.83
2018-07-05T01:28:31.373Z,7.27
2018-07-05T01:31:10.932Z,6.63
2018-07-05T01:33:50.552Z,6.20
2018-07-05T01:36:30.336Z,7.60
2018-07-05T01:39:10.115Z,7.40
2018-07-05T01:41:49.772Z,7.53
2018-07-05T01:44:29.473Z,7.50
2018-07-05T01:47:09.431Z,7.17
2018-07-05T01:49:43.106Z,7.13
2018-07-05T01:52:22.901Z,6.83
2018-07-05T01:55:02.540Z,7.73
2018-07-05T01:57:42.285Z,7.20
2018-07-05T02:00:22.019Z,11.70
2018-07-05T02:03:01.495Z,10.33
2018-07-05T02:05:41.140Z,7.60
2018-07-05T02:08:20.643Z,7.93
2018-07-05T02:11:00.456Z,7.50
2018-07-05T02:13:40.095Z,7.70
2018-07-05T02:16:20.043Z,8.23
2018-07-05T02:18:59.947Z,7.70
2018-07-05T02:21:39.560Z,7.43
2018-07-05T02:24:19.183Z,7.60
2018-07-05T02:26:58.830Z,7.63
2018-07-05T02:29:38.510Z,7.60
2018-07-05T02:32:18.049Z,7.83
2018-07-05T02:34:57.630Z,7.00
2018-07-05T02:37:42.782Z,7.77
2018-07-05T02:40:22.471Z,7.47
2018-07-05T02:42:56.183Z,7.17
2018-07-05T02:45:35.992Z,7.10
2018-07-05T02:48:15.554Z,7.63
2018-07-05T02:50:55.151Z,7.23
2018-07-05T02:53:34.823Z,7.27
2018-07-05T02:56:14.575Z,7.20
2018-07-05T02:58:54.229Z,6.57
2018-07-05T03:01:33.805Z,6.87
2018-07-05T03:04:13.423Z,7.10
2018-07-05T03:06:52.979Z,7.07
2018-07-05T03:09:32.636Z,7.03
2018-07-05T03:12:12.149Z,7.20
2018-07-05T03:14:51.775Z,7.63
2018-07-05T03:17:31.462Z,6.53
2018-07-05T03:20:11.180Z,6.90
2018-07-05T03:22:51.007Z,7.47
2018-07-05T03:25:30.746Z,6.70
2018-07-05T03:28:10.385Z,6.83
2018-07-05T03:30:50.118Z,7.20
2018-07-05T03:33:29.731Z,6.87
2018-07-05T03:36:09.439Z,7.73
2018-07-05T03:38:48.948Z,7.40
2018-07-05T03:41:28.707Z,7.27
2018-07-05T03:44:08.611Z,6.80
2018-07-05T03:46:48.331Z,7.53
2018-07-05T03:49:28.135Z,7.37
2018-07-05T03:52:07.647Z,7.20
2018-07-05T03:54:47.690Z,8.03
2018-07-05T03:57:27.434Z,8.20
2018-07-05T04:00:07.099Z,7.27
2018-07-05T04:02:46.938Z,7.23
2018-07-05T04:05:26.502Z,7.60
2018-07-05T04:08:06.498Z,7.50
2018-07-05T04:10:46.106Z,7.50
2018-07-05T04:13:25.609Z,7.57
2018-07-05T04:16:05.216Z,6.60
2018-07-05T04:18:44.875Z,7.63
2018-07-05T04:21:25.007Z,7.00
2018-07-05T04:24:04.784Z,7.20
2018-07-05T04:26:44.211Z,7.13
2018-07-05T04:29:23.878Z,7.50
2018-07-05T04:32:03.737Z,7.33
2018-07-05T04:34:43.411Z,7.40
2018-07-05T04:37:23.020Z,7.37
2018-07-05T04:40:02.608Z,7.57
2018-07-05T04:42:36.559Z,8.33
2018-07-05T04:45:16.091Z,7.57
2018-07-05T04:47:55.824Z,7.40
2018-07-05T04:50:35.628Z,7.20
2018-07-05T04:53:15.340Z,7.00
2018-07-05T04:55:55.059Z,7.07
2018-07-05T04:58:34.831Z,7.20
2018-07-05T05:01:14.444Z,7.20
2018-07-05T05:03:54.122Z,8.03
2018-07-05T05:06:33.964Z,7.47
2018-07-05T05:09:13.854Z,7.77
2018-07-05T05:11:53.796Z,7.73
2018-07-05T05:14:33.448Z,7.47
2018-07-05T05:17:13.299Z,7.87
2018-07-05T05:19:47.019Z,7.27
2018-07-05T05:22:26.775Z,6.83
2018-07-05T05:25:06.844Z,7.00
2018-07-05T05:27:46.754Z,7.07
2018-07-05T05:30:26.227Z,7.30
2018-07-05T05:33:06.037Z,7.53
2018-07-05T05:35:45.813Z,7.50
2018-07-05T05:38:25.563Z,7.30
2018-07-05T05:41:05.347Z,7.67
2018-07-05T05:43:45.105Z,7.00
2018-07-05T05:46:24.882Z,7.77
2018-07-05T05:49:04.543Z,7.73
2018-07-05T05:51:44.170Z,8.10
2018-07-05T05:54:23.887Z,7.27
2018-07-05T05:57:03.503Z,7.50
2018-07-05T05:59:43.200Z,8.27
2018-07-05T06:02:22.929Z,7.97
2018-07-05T06:05:02.528Z,8.17
2018-07-05T06:07:42.169Z,8.93
2018-07-05T06:10:21.784Z,7.60
2018-07-05T06:13:01.516Z,7.93
2018-07-05T06:15:41.144Z,7.83
2018-07-05T06:18:20.716Z,7.00
2018-07-05T06:21:00.292Z,7.30
2018-07-05T06:23:40.271Z,7.90
2018-07-05T06:26:19.929Z,7.33
2018-07-05T06:28:59.824Z,7.80
2018-07-05T06:31:39.511Z,6.90
2018-07-05T06:34:13.282Z,6.83
2018-07-05T06:36:52.785Z,6.97
2018-07-05T06:39:32.491Z,7.20
2018-07-05T06:42:12.088Z,7.27
2018-07-05T06:44:51.744Z,6.57
2018-07-05T06:47:32.150Z,7.30
2018-07-05T06:50:11.874Z,7.03
2018-07-05T06:52:51.625Z,7.00
2018-07-05T06:55:31.517Z,7.17
2018-07-05T06:58:11.415Z,7.03
2018-07-05T07:00:51.110Z,6.70
2018-07-05T07:03:30.753Z,7.00
2018-07-05T07:06:10.288Z,6.23
2018-07-05T07:08:50.230Z,6.23
2018-07-05T07:11:29.892Z,6.77
2018-07-05T07:14:09.527Z,6.90
2018-07-05T07:16:49.245Z,6.00
2018-07-05T07:19:28.867Z,6.30
2018-07-05T07:22:08.429Z,7.00
2018-07-05T07:24:47.995Z,6.67
2018-07-05T07:27:27.578Z,6.37
2018-07-05T07:30:01.271Z,6.40
2018-07-05T07:32:41.342Z,6.43
2018-07-05T07:35:15.271Z,7.07
2018-07-05T07:37:55.204Z,6.83
2018-07-05T07:40:35.028Z,6.73
2018-07-05T07:43:02.404Z,6.97
2018-07-05T07:45:29.835Z,7.67
2018-07-05T07:47:57.142Z,8.47
2018-07-05T07:50:24.587Z,6.40
2018-07-05T07:52:51.929Z,7.50
2018-07-05T07:55:19.892Z,7.57
2018-07-05T07:57:47.283Z,8.07
2018-07-05T08:00:14.659Z,9.60
2018-07-05T08:02:42.053Z,8.47
2018-07-05T08:05:09.646Z,8.63
2018-07-05T08:07:36.995Z,8.50
2018-07-05T08:10:04.383Z,8.17
2018-07-05T08:12:31.851Z,8.20
2018-07-05T08:14:59.221Z,7.50
2018-07-05T08:17:27.690Z,7.97
2018-07-05T08:19:55.042Z,7.90
2018-07-05T08:22:22.600Z,8.38
2018-07-05T08:24:50.028Z,8.87
2018-07-05T08:27:17.460Z,8.53
2018-07-05T08:29:44.804Z,8.25
2018-07-05T08:32:12.125Z,7.12
2018-07-05T08:34:39.626Z,8.80
2018-07-05T08:37:06.941Z,9.23
2018-07-05T08:39:34.361Z,8.48
2018-07-05T08:42:01.733Z,8.10
2018-07-05T08:44:29.207Z,9.78
2018-07-05T08:46:56.680Z,9.30
2018-07-05T08:49:24.239Z,8.63
2018-07-05T08:51:51.755Z,8.78
2018-07-05T08:54:19.475Z,8.80
2018-07-05T08:56:46.843Z,8.95
2018-07-05T08:59:14.190Z,8.43
2018-07-05T09:01:41.541Z,8.73
2018-07-05T09:04:09.155Z,9.65
2018-07-05T09:06:36.571Z,8.55
2018-07-05T09:09:04.840Z,8.23
2018-07-05T09:11:32.198Z,9.73
2018-07-05T09:13:59.555Z,9.28
2018-07-05T09:16:26.967Z,8.58
2018-07-05T09:18:54.379Z,7.90
2018-07-05T09:21:22.191Z,7.37
2018-07-05T09:23:49.677Z,9.03
2018-07-05T09:26:16.960Z,7.28
2018-07-05T09:28:44.317Z,7.62
2018-07-05T09:31:11.699Z,7.12
2018-07-05T09:33:39.210Z,7.08
2018-07-05T09:36:06.584Z,7.80
2018-07-05T09:38:34.032Z,8.03
2018-07-05T09:41:01.459Z,7.60
2018-07-05T09:43:28.815Z,7.30
2018-07-05T09:45:56.205Z,7.47
2018-07-05T09:48:23.598Z,7.25
2018-07-05T09:50:50.959Z,7.97
2018-07-05T09:53:18.379Z,6.83
2018-07-05T09:55:45.979Z,8.40
2018-07-05T09:58:13.339Z,7.40
2018-07-05T10:00:55.074Z,7.10
2018-07-05T10:03:23.088Z,7.35
2018-07-05T10:05:50.569Z,7.35
2018-07-05T10:08:19.027Z,6.65
2018-07-05T10:10:46.555Z,6.97
2018-07-05T10:13:14.147Z,7.87
2018-07-05T10:15:41.549Z,7.15
2018-07-05T10:18:08.923Z,7.55
2018-07-05T10:20:36.316Z,8.03
2018-07-05T10:23:03.679Z,7.28
2018-07-05T10:25:31.235Z,8.50
2018-07-05T10:27:59.096Z,7.60
2018-07-05T10:30:38.904Z,7.97
2018-07-05T10:33:18.902Z,8.20
2018-07-05T10:35:46.226Z,8.18
2018-07-05T10:38:13.587Z,7.87
2018-07-05T10:40:53.298Z,7.35
2018-07-05T10:43:32.951Z,7.28
2018-07-05T10:46:12.768Z,6.40
2018-07-05T10:48:52.514Z,5.92
2018-07-05T10:51:32.135Z,6.70
2018-07-05T10:54:11.871Z,5.85
2018-07-05T10:56:51.711Z,5.67
2018-07-05T10:59:31.384Z,5.30
2018-07-05T11:02:11.167Z,5.45
2018-07-05T11:04:50.873Z,5.30
2018-07-05T11:07:30.604Z,5.78
2018-07-05T11:10:10.283Z,5.45
2018-07-05T11:12:49.967Z,5.50
2018-07-05T11:15:23.702Z,4.53
2018-07-05T11:18:03.600Z,5.08
2018-07-05T11:20:43.315Z,5.55
2018-07-05T11:23:22.951Z,5.97
2018-07-05T11:26:02.888Z,5.20
2018-07-05T11:28:42.627Z,5.17
2018-07-05T11:31:22.519Z,5.28
2018-07-05T11:34:02.443Z,7.95
2018-07-05T11:36:42.523Z,6.42
2018-07-05T11:39:22.160Z,7.08
2018-07-05T11:42:02.079Z,7.58
2018-07-05T11:44:41.619Z,7.87
2018-07-05T11:47:21.375Z,8.00
2018-07-05T11:50:01.089Z,7.70
2018-07-05T11:52:40.687Z,8.03
2018-07-05T11:55:20.578Z,7.80
2018-07-05T11:58:00.569Z,8.30
2018-07-05T12:00:40.409Z,8.40
2018-07-05T12:03:20.353Z,7.17
2018-07-05T12:06:00.091Z,7.13
2018-07-05T12:08:39.704Z,7.77
2018-07-05T12:11:13.267Z,7.57
2018-07-05T12:13:53.036Z,7.50
2018-07-05T12:16:33.223Z,6.90
2018-07-05T12:19:12.757Z,7.27
2018-07-05T12:21:52.522Z,7.30
2018-07-05T12:24:32.229Z,7.43
2018-07-05T12:27:12.006Z,7.13
2018-07-05T12:29:51.790Z,6.33
2018-07-05T12:32:31.890Z,6.87
2018-07-05T12:35:05.683Z,6.87
2018-07-05T12:37:45.430Z,7.67
2018-07-05T12:40:25.265Z,7.50
2018-07-05T12:43:05.198Z,6.93
2018-07-05T12:45:45.106Z,7.43
2018-07-05T12:48:25.108Z,7.40
2018-07-05T12:51:05.152Z,6.70
2018-07-05T12:53:45.102Z,6.97
2018-07-05T12:56:24.896Z,6.40
2018-07-05T12:59:04.599Z,6.50
2018-07-05T13:01:44.220Z,6.57
2018-07-05T13:04:23.897Z,6.90
2018-07-05T13:07:03.547Z,7.53
2018-07-05T13:09:43.207Z,7.47
2018-07-05T13:12:23.060Z,8.37
2018-07-05T13:15:02.753Z,7.83
2018-07-05T13:17:42.376Z,7.13
2018-07-05T13:20:21.902Z,7.43
2018-07-05T13:23:01.792Z,7.43
2018-07-05T13:25:41.396Z,7.03
2018-07-05T13:28:21.208Z,6.83
2018-07-05T13:31:01.020Z,6.90
2018-07-05T13:33:40.879Z,6.90
2018-07-05T13:36:20.699Z,6.60
2018-07-05T13:39:00.447Z,6.60
2018-07-05T13:41:40.188Z,5.77
2018-07-05T13:44:19.747Z,5.43
2018-07-05T13:46:59.481Z,5.73
2018-07-05T13:49:39.200Z,5.83
2018-07-05T13:52:19.066Z,5.60
2018-07-05T13:54:58.867Z,5.33
2018-07-05T13:57:39.325Z,5.23
2018-07-05T14:00:18.975Z,5.50
2018-07-05T14:02:59.000Z,5.97
2018-07-05T14:05:38.600Z,6.17
2018-07-05T14:08:18.537Z,8.30
2018-07-05T14:10:58.518Z,7.70
2018-07-05T14:13:38.276Z,8.68
2018-07-05T14:16:18.317Z,9.35
2018-07-05T14:18:58.292Z,9.15
2018-07-05T14:21:38.152Z,11.45
2018-07-05T14:24:18.300Z,11.30
2018-07-05T14:26:58.050Z,10.98
2018-07-05T14:29:37.777Z,13.90
2018-07-05T14:32:17.625Z,13.43
2018-07-05T14:34:57.778Z,11.33
2018-07-05T14:37:37.729Z,13.48
2018-07-05T14:40:17.573Z,12.60
2018-07-05T14:42:57.668Z,12.45
2018-07-05T14:45:37.795Z,11.97
2018-07-05T14:48:17.730Z,11.50
2018-07-05T14:50:57.285Z,11.10
2018-07-05T14:53:37.023Z,11.43
2018-07-05T14:56:16.689Z,11.08
2018-07-05T14:58:56.463Z,11.65
2018-07-05T15:01:36.450Z,12.58
2018-07-05T15:04:16.221Z,12.58
2018-07-05T15:06:56.000Z,11.63
2018-07-05T15:09:36.005Z,10.50
2018-07-05T15:12:16.170Z,10.90
2018-07-05T15:14:55.818Z,10.07
2018-07-05T15:17:35.580Z,8.60
2018-07-05T15:20:15.495Z,8.30
2018-07-05T15:22:55.540Z,6.97
2018-07-05T15:25:35.534Z,6.67
2018-07-05T15:28:15.311Z,5.80
2018-07-05T15:30:55.031Z,6.47
2018-07-05T15:33:34.856Z,6.20
2018-07-05T15:36:08.576Z,5.23
2018-07-05T15:38:48.742Z,4.90
2018-07-05T15:41:28.528Z,4.60
2018-07-05T15:44:08.516Z,6.00
2018-07-05T15:46:49.682Z,5.47
2018-07-05T15:49:29.499Z,6.87
2018-07-05T15:52:09.238Z,6.33
2018-07-05T15:54:49.262Z,6.10
2018-07-05T15:57:29.165Z,4.78
2018-07-05T16:00:08.999Z,4.60
2018-07-05T16:02:48.755Z,3.50
2018-07-05T16:05:28.577Z,3.70
2018-07-05T16:08:08.332Z,3.80
2018-07-05T16:10:48.351Z,3.20
2018-07-05T16:13:28.188Z,3.62
2018-07-05T16:16:08.068Z,3.42
2018-07-05T16:18:47.971Z,3.33
2018-07-05T16:21:27.935Z,4.35
2018-07-05T16:24:07.727Z,3.70
2018-07-05T16:26:47.245Z,3.67
2018-07-05T16:29:26.902Z,3.52
2018-07-05T16:32:06.541Z,4.10
2018-07-05T16:34:46.071Z,3.98
2018-07-05T16:37:25.708Z,4.78
2018-07-05T16:40:05.446Z,4.95
2018-07-05T16:42:45.405Z,4.83
2018-07-05T16:45:25.160Z,4.87
2018-07-05T16:48:04.818Z,5.25
2018-07-05T16:50:44.493Z,5.50
2018-07-05T16:53:24.181Z,5.60
2018-07-05T16:56:04.071Z,5.50
2018-07-05T16:58:43.899Z,6.30
2018-07-05T17:01:23.897Z,6.10
2018-07-05T17:04:03.593Z,6.85
2018-07-05T17:06:43.358Z,8.50
2018-07-05T17:09:23.244Z,7.67
2018-07-05T17:12:02.879Z,8.35
2018-07-05T17:14:42.755Z,7.35
2018-07-05T17:17:22.603Z,7.37
2018-07-05T17:20:02.322Z,7.47
2018-07-05T17:22:42.327Z,7.00
2018-07-05T17:25:21.993Z,6.90
2018-07-05T17:28:01.772Z,7.37
2018-07-05T17:30:41.695Z,6.67
2018-07-05T17:33:21.595Z,6.87
2018-07-05T17:36:01.507Z,6.70
2018-07-05T17:38:41.545Z,5.70
2018-07-05T17:41:21.233Z,6.10
2018-07-05T17:44:00.853Z,5.90
2018-07-05T17:46:40.543Z,6.10
2018-07-05T17:49:20.258Z,7.30
2018-07-05T17:52:00.180Z,6.20
2018-07-05T17:54:40.185Z,5.77
2018-07-05T17:57:20.212Z,7.23
2018-07-05T18:00:00.084Z,6.87
2018-07-05T18:02:40.272Z,7.10
2018-07-05T18:05:20.051Z,7.13
2018-07-05T18:07:59.869Z,6.80
2018-07-05T18:10:39.476Z,7.27
2018-07-05T18:13:19.231Z,7.30
2018-07-05T18:15:59.053Z,7.70
2018-07-05T18:18:38.776Z,7.00
2018-07-05T18:21:18.420Z,6.83
2018-07-05T18:23:58.148Z,7.63
2018-07-05T18:26:38.255Z,8.10
2018-07-05T18:29:18.107Z,7.17
2018-07-05T18:31:57.749Z,7.60
2018-07-05T18:34:31.688Z,8.70
2018-07-05T18:37:11.504Z,7.67
2018-07-05T18:39:51.586Z,7.90
2018-07-05T18:42:31.388Z,7.83
2018-07-05T18:45:11.293Z,7.73
2018-07-05T18:47:51.315Z,8.50
2018-07-05T18:50:25.032Z,7.97
2018-07-05T18:53:04.719Z,7.70
2018-07-05T18:55:44.525Z,7.90
2018-07-05T18:58:24.523Z,7.90
2018-07-05T19:01:04.280Z,7.10
2018-07-05T19:03:44.076Z,7.33
2018-07-05T19:06:24.023Z,7.20
2018-07-05T19:09:04.361Z,6.90
2018-07-05T19:11:44.160Z,6.40
2018-07-05T19:14:24.073Z,6.80
2018-07-05T19:17:04.038Z,6.50
2018-07-05T19:19:43.975Z,5.87
2018-07-05T19:22:23.720Z,5.67
2018-07-05T19:25:03.357Z,6.30
2018-07-05T19:27:42.940Z,6.00
2018-07-05T19:30:22.743Z,6.03
2018-07-05T19:33:02.557Z,6.30
2018-07-05T19:35:42.516Z,5.90
2018-07-05T19:38:22.447Z,6.27
2018-07-05T19:41:02.335Z,5.97
2018-07-05T19:43:42.092Z,6.27
2018-07-05T19:46:21.898Z,6.27
2018-07-05T19:49:01.731Z,6.30
2018-07-05T19:51:41.515Z,6.23
2018-07-05T19:54:21.431Z,5.90
2018-07-05T19:57:01.320Z,6.40
2018-07-05T19:59:41.118Z,6.30
2018-07-05T20:02:21.117Z,6.50
2018-07-05T20:05:01.000Z,6.77
2018-07-05T20:07:41.012Z,6.37
2018-07-05T20:10:20.757Z,6.30
2018-07-05T20:13:00.576Z,7.40
2018-07-05T20:15:40.301Z,6.40
2018-07-05T20:18:20.085Z,6.90
2018-07-05T20:21:00.303Z,6.23
2018-07-05T20:23:40.067Z,6.57
2018-07-05T20:26:19.754Z,6.77
2018-07-05T20:28:59.513Z,7.70
2018-07-05T20:31:39.221Z,7.80
2018-07-05T20:34:18.812Z,7.73
2018-07-05T20:36:58.543Z,7.83
2018-07-05T20:39:38.218Z,8.33
2018-07-05T20:42:17.924Z,8.10
2018-07-05T20:44:57.665Z,7.50
2018-07-05T20:47:37.274Z,8.30
2018-07-05T20:50:16.910Z,8.20
2018-07-05T20:52:56.419Z,7.90
2018-07-05T20:55:36.152Z,8.10
2018-07-05T20:58:15.995Z,6.67
2018-07-05T21:00:55.507Z,5.60
2018-07-05T21:03:35.172Z,7.00
2018-07-05T21:06:14.995Z,7.80
2018-07-05T21:08:54.666Z,6.20
2018-07-05T21:11:34.219Z,5.43
2018-07-05T21:14:13.867Z,4.37
2018-07-05T21:16:53.796Z,3.93
2018-07-05T21:19:33.799Z,3.67
2018-07-05T21:22:13.532Z,2.83
2018-07-05T21:24:53.249Z,2.80
2018-07-05T21:27:32.862Z,2.40
2018-07-05T21:30:12.933Z,2.50
2018-07-05T21:32:52.641Z,2.30
2018-07-05T21:35:32.654Z,2.30
2018-07-05T21:38:06.294Z,2.27
2018-07-05T21:40:46.060Z,2.60
2018-07-05T21:43:25.985Z,2.40
2018-07-05T21:46:05.680Z,2.77
2018-07-05T21:48:45.364Z,2.47
2018-07-05T21:51:25.071Z,2.60
2018-07-05T21:54:04.727Z,2.37
2018-07-05T21:56:38.439Z,2.47
2018-07-05T21:59:18.498Z,2.33
2018-07-05T22:01:58.164Z,2.30
2018-07-05T22:04:37.683Z,2.40
2018-07-05T22:07:17.336Z,2.47
2018-07-05T22:09:57.185Z,2.40
2018-07-05T22:12:36.982Z,2.60
2018-07-05T22:15:17.041Z,2.40
2018-07-05T22:18:02.264Z,2.43
2018-07-05T22:20:47.387Z,2.40
2018-07-05T22:23:32.596Z,2.27
2018-07-05T22:26:17.778Z,2.50
2018-07-05T22:29:03.053Z,2.40
2018-07-05T22:31:43.182Z,2.50
2018-07-05T22:34:23.156Z,2.50
2018-07-05T22:37:02.951Z,2.43
2018-07-05T22:39:42.574Z,2.03
2018-07-05T22:42:22.280Z,2.20
2018-07-05T22:45:01.905Z,2.70
2018-07-05T22:47:41.961Z,2.30
2018-07-05T22:50:21.680Z,2.20
2018-07-05T22:53:01.318Z,2.37
2018-07-05T22:55:40.976Z,1.90
2018-07-05T22:58:20.649Z,2.20
2018-07-05T23:01:00.603Z,2.27
2018-07-05T23:03:40.367Z,2.10
2018-07-05T23:06:20.154Z,1.77
2018-07-05T23:08:59.994Z,2.50
2018-07-05T23:11:39.693Z,2.33
2018-07-05T23:14:19.367Z,2.20
2018-07-05T23:16:59.789Z,2.20
2018-07-05T23:19:39.464Z,2.50
2018-07-05T23:22:19.383Z,2.33
2018-07-05T23:24:59.284Z,2.53
2018-07-05T23:27:39.000Z,3.00
2018-07-05T23:30:19.233Z,2.43
2018-07-05T23:32:59.264Z,2.70
2018-07-05T23:35:38.899Z,2.33
2018-07-05T23:38:18.493Z,2.20
2018-07-05T23:40:58.221Z,2.37
2018-07-05T23:43:37.852Z,2.37
2018-07-05T23:46:17.609Z,2.50
2018-07-05T23:48:57.284Z,2.23
2018-07-05T23:51:36.984Z,2.17
2018-07-05T23:54:16.737Z,2.43
2018-07-05T23:56:56.246Z,2.40
2018-07-05T23:59:35.921Z,2.40
